Terminal Aerodrome Forecast
Issued by NWS

Home | Current Version | Previous Version | Text Only | Print | Product List | Glossary On
Versions: 1 2 3 4 5 6 7 8 9 10 11 12 13 14 15 16 17 18 19 20 21 22 23
000
FTUS43 KMQT 291120
TAFCMX
TAF
KCMX 291120Z 2912/3012 VRB03KT 1/4SM FG OVC001
     FM291300 24005KT 3/4SM BR VCSH OVC003
      TEMPO 2913/2915 1/4SM FG
     FM291700 26009KT 3SM BR VCSH OVC008
     FM292000 27014G21KT 6SM BR OVC015
     FM300000 27014G20KT P6SM BKN025
     FM300400 27009KT P6SM BKN025
     FM300700 27007KT P6SM SCT025=

USA.gov is the U.S. government's official web portal to all federal, state and local government web resources and services.